createdAt,value
2023-05-12T00:01:03.772Z,5.68
2023-05-12T00:03:30.272Z,4.65
2023-05-12T00:05:56.813Z,4.93
2023-05-12T00:08:23.121Z,4.85
2023-05-12T00:10:49.892Z,4.65
2023-05-12T00:13:16.367Z,4.63
2023-05-12T00:15:42.769Z,4.50
2023-05-12T00:18:09.408Z,4.38
2023-05-12T00:20:35.801Z,4.70
2023-05-12T00:23:02.196Z,5.53
2023-05-12T00:25:28.538Z,4.88
2023-05-12T00:27:54.827Z,5.20
2023-05-12T00:30:21.635Z,4.57
2023-05-12T00:32:48.417Z,4.45
2023-05-12T00:35:16.025Z,4.72
2023-05-12T00:37:42.759Z,5.82
2023-05-12T00:40:09.449Z,4.80
2023-05-12T00:42:36.041Z,6.60
2023-05-12T00:45:02.675Z,4.53
2023-05-12T00:47:29.091Z,5.07
2023-05-12T00:49:55.600Z,5.55
2023-05-12T00:52:22.076Z,4.68
2023-05-12T00:54:48.466Z,4.50
2023-05-12T00:57:14.838Z,4.85
2023-05-12T00:59:41.206Z,4.40
2023-05-12T01:02:07.620Z,5.25
2023-05-12T01:04:36.108Z,4.05
2023-05-12T01:07:18.978Z,4.93
2023-05-12T01:09:45.410Z,5.72
2023-05-12T01:12:11.736Z,4.57
2023-05-12T01:14:38.213Z,4.95
2023-05-12T01:17:08.783Z,4.95
2023-05-12T01:19:43.359Z,5.20
2023-05-12T01:22:10.785Z,4.93
2023-05-12T01:24:42.648Z,4.82
2023-05-12T01:27:09.377Z,5.55
2023-05-12T01:29:35.867Z,4.78
2023-05-12T01:32:03.030Z,4.68
2023-05-12T01:34:29.339Z,5.03
2023-05-12T01:36:55.726Z,4.90
2023-05-12T01:39:22.021Z,4.72
2023-05-12T01:41:48.341Z,5.28
2023-05-12T01:44:14.717Z,4.72
2023-05-12T01:46:41.061Z,4.88
2023-05-12T01:49:07.379Z,5.72
2023-05-12T01:51:33.816Z,5.10
2023-05-12T01:54:00.119Z,5.10
2023-05-12T01:56:26.628Z,3.78
2023-05-12T01:58:52.966Z,4.63
2023-05-12T02:01:19.390Z,4.32
2023-05-12T02:03:45.856Z,4.47
2023-05-12T02:06:12.292Z,4.13
2023-05-12T02:08:38.659Z,4.00
2023-05-12T02:11:06.114Z,4.75
2023-05-12T02:13:32.504Z,4.07
2023-05-12T02:15:58.880Z,4.13
2023-05-12T02:18:25.276Z,3.47
2023-05-12T02:20:51.602Z,3.63
2023-05-12T02:23:17.894Z,3.72
2023-05-12T02:25:44.199Z,3.92
2023-05-12T02:28:11.780Z,4.25
2023-05-12T02:30:38.468Z,3.80
2023-05-12T02:33:07.519Z,4.57
2023-05-12T02:35:33.874Z,4.07
2023-05-12T02:38:00.587Z,3.65
2023-05-12T02:40:26.956Z,4.03
2023-05-12T02:42:53.252Z,4.13
2023-05-12T02:45:19.583Z,4.10
2023-05-12T02:47:46.105Z,4.53
2023-05-12T02:50:12.459Z,3.60
2023-05-12T02:52:38.849Z,4.25
2023-05-12T02:55:05.374Z,3.72
2023-05-12T02:57:34.479Z,4.22
2023-05-12T03:00:01.507Z,4.05
2023-05-12T03:02:28.044Z,3.50
2023-05-12T03:04:54.414Z,4.03
2023-05-12T03:07:20.788Z,3.90
2023-05-12T03:09:47.773Z,3.80
2023-05-12T03:12:14.074Z,2.78
2023-05-12T03:14:40.417Z,3.00
2023-05-12T03:17:06.776Z,3.45
2023-05-12T03:19:33.146Z,4.53
2023-05-12T03:21:59.460Z,3.38
2023-05-12T03:24:25.802Z,3.70
2023-05-12T03:26:52.269Z,3.40
2023-05-12T03:29:18.570Z,3.72
2023-05-12T03:31:44.946Z,3.50
2023-05-12T03:34:11.313Z,3.50
2023-05-12T03:36:37.664Z,3.85
2023-05-12T03:39:04.091Z,3.72
2023-05-12T03:41:30.511Z,3.70
2023-05-12T03:43:56.857Z,3.75
2023-05-12T03:46:24.126Z,3.55
2023-05-12T03:48:50.556Z,4.25
2023-05-12T03:51:16.861Z,3.60
2023-05-12T03:53:45.365Z,5.20
2023-05-12T03:56:11.926Z,4.72
2023-05-12T03:58:38.245Z,4.72
2023-05-12T04:01:04.609Z,4.88
2023-05-12T04:03:31.357Z,5.05
2023-05-12T04:06:01.389Z,5.20
2023-05-12T04:08:28.196Z,6.05
2023-05-12T04:10:55.222Z,6.03
2023-05-12T04:13:21.972Z,6.15
2023-05-12T04:15:49.243Z,7.13
2023-05-12T04:18:15.973Z,6.85
2023-05-12T04:20:42.328Z,8.52
2023-05-12T04:23:08.741Z,7.60
2023-05-12T04:25:38.457Z,8.27
2023-05-12T04:28:04.762Z,8.50
2023-05-12T04:30:31.121Z,9.10
2023-05-12T04:32:57.429Z,8.38
2023-05-12T04:35:24.001Z,9.25
2023-05-12T04:37:50.533Z,9.00
2023-05-12T04:40:16.927Z,9.70
2023-05-12T04:42:43.229Z,9.77
2023-05-12T04:45:09.745Z,9.52
2023-05-12T04:47:36.088Z,10.55
2023-05-12T04:50:02.688Z,10.63
2023-05-12T04:52:28.996Z,10.80
2023-05-12T04:54:55.294Z,10.80
2023-05-12T04:57:21.665Z,11.38
2023-05-12T04:59:48.074Z,12.75
2023-05-12T05:02:14.420Z,11.98
2023-05-12T05:04:40.784Z,12.02
2023-05-12T05:07:07.169Z,12.13
2023-05-12T05:09:36.182Z,12.90
2023-05-12T05:12:02.992Z,11.63
2023-05-12T05:14:29.318Z,11.27
2023-05-12T05:16:55.673Z,12.35
2023-05-12T05:19:30.162Z,11.57
2023-05-12T05:22:05.308Z,13.25
2023-05-12T05:24:31.595Z,12.52
2023-05-12T05:26:57.924Z,12.90
2023-05-12T05:29:24.285Z,12.50
2023-05-12T05:31:50.728Z,12.95
2023-05-12T05:34:17.110Z,14.32
2023-05-12T05:36:43.514Z,13.95
2023-05-12T05:39:10.453Z,13.77
2023-05-12T05:41:36.812Z,13.95
2023-05-12T05:44:03.185Z,14.95
2023-05-12T05:46:29.532Z,15.80
2023-05-12T05:48:56.045Z,15.55
2023-05-12T05:51:22.358Z,15.95
2023-05-12T05:53:48.657Z,14.43
2023-05-12T05:56:14.948Z,15.25
2023-05-12T05:58:41.513Z,15.57
2023-05-12T06:01:07.842Z,14.32
2023-05-12T06:03:34.202Z,14.90
2023-05-12T06:06:00.543Z,16.25
2023-05-12T06:08:26.931Z,16.38
2023-05-12T06:10:53.224Z,15.15
2023-05-12T06:13:19.544Z,17.00
2023-05-12T06:15:45.914Z,7.70
2023-05-12T06:18:12.358Z,13.73
2023-05-12T06:20:38.685Z,15.65
2023-05-12T06:23:05.607Z,16.70
2023-05-12T06:25:33.260Z,17.05
2023-05-12T06:27:59.632Z,17.27
2023-05-12T06:30:26.872Z,15.63
2023-05-12T06:32:53.289Z,18.15
2023-05-12T06:35:19.807Z,17.92
2023-05-12T06:37:49.721Z,17.58
2023-05-12T06:40:17.109Z,19.15
2023-05-12T06:42:43.723Z,19.02
2023-05-12T06:45:11.442Z,19.13
2023-05-12T06:47:37.837Z,20.55
2023-05-12T06:50:04.523Z,16.67
2023-05-12T06:52:30.881Z,18.95
2023-05-12T06:54:57.180Z,20.33
2023-05-12T06:57:23.492Z,22.00
2023-05-12T06:59:49.811Z,18.67
2023-05-12T07:02:16.999Z,15.75
2023-05-12T07:04:43.315Z,16.80
2023-05-12T07:07:09.643Z,13.60
2023-05-12T07:09:35.942Z,12.93
2023-05-12T07:12:02.279Z,14.10
2023-05-12T07:14:28.581Z,15.70
2023-05-12T07:16:54.891Z,17.88
2023-05-12T07:19:21.424Z,16.58
2023-05-12T07:21:47.821Z,15.00
2023-05-12T07:24:14.228Z,14.68
2023-05-12T07:26:40.997Z,16.20
2023-05-12T07:29:13.444Z,15.82
2023-05-12T07:31:40.659Z,14.60
2023-05-12T07:34:07.287Z,15.57
2023-05-12T07:36:33.711Z,14.35
2023-05-12T07:39:00.154Z,14.18
2023-05-12T07:41:26.492Z,12.65
2023-05-12T07:43:52.855Z,11.18
2023-05-12T07:46:19.184Z,12.80
2023-05-12T07:48:45.602Z,10.02
2023-05-12T07:51:11.901Z,12.45
2023-05-12T07:53:38.269Z,11.73
2023-05-12T07:56:04.720Z,9.98
2023-05-12T07:58:31.078Z,20.83
2023-05-12T08:01:00.086Z,9.02
2023-05-12T08:03:26.587Z,8.85
2023-05-12T08:05:52.969Z,9.02
2023-05-12T08:08:19.272Z,8.15
2023-05-12T08:10:45.598Z,7.65
2023-05-12T08:13:11.931Z,8.88
2023-05-12T08:15:38.730Z,7.82
2023-05-12T08:18:05.373Z,7.63
2023-05-12T08:20:32.169Z,7.55
2023-05-12T08:22:58.814Z,7.72
2023-05-12T08:25:26.991Z,9.02
2023-05-12T08:27:53.322Z,8.32
2023-05-12T08:30:19.641Z,22.60
2023-05-12T08:32:46.279Z,12.15
2023-05-12T08:35:12.615Z,5.57
2023-05-12T08:37:39.035Z,6.45
2023-05-12T08:40:08.999Z,6.00
2023-05-12T08:42:37.746Z,7.78
2023-05-12T08:45:04.439Z,5.75
2023-05-12T08:47:32.837Z,4.88
2023-05-12T08:50:00.932Z,5.60
2023-05-12T08:52:28.510Z,5.20
2023-05-12T08:54:56.651Z,3.95
2023-05-12T08:57:23.241Z,4.78
2023-05-12T08:59:49.913Z,4.68
2023-05-12T09:02:17.422Z,4.95
2023-05-12T09:04:43.870Z,3.75
2023-05-12T09:07:10.942Z,3.97
2023-05-12T09:09:38.373Z,3.78
2023-05-12T09:12:06.771Z,4.60
2023-05-12T09:14:34.518Z,3.53
2023-05-12T09:17:02.753Z,3.60
2023-05-12T09:19:29.202Z,3.63
2023-05-12T09:21:56.025Z,3.40
2023-05-12T09:24:33.361Z,3.08
2023-05-12T09:26:59.665Z,2.95
2023-05-12T09:29:31.975Z,2.88
2023-05-12T09:32:01.995Z,4.10
2023-05-12T09:34:30.417Z,3.70
2023-05-12T09:36:57.617Z,3.10
2023-05-12T09:39:24.390Z,3.45
2023-05-12T09:41:51.641Z,3.17
2023-05-12T09:44:18.445Z,2.45
2023-05-12T09:46:45.078Z,2.60
2023-05-12T09:49:11.981Z,9.40
2023-05-12T09:51:38.510Z,4.10
2023-05-12T09:54:06.439Z,2.42
2023-05-12T09:56:37.541Z,2.30
2023-05-12T09:59:04.763Z,2.92
2023-05-12T10:01:31.443Z,2.97
2023-05-12T10:03:58.554Z,2.15
2023-05-12T10:06:26.474Z,2.53
2023-05-12T10:08:55.745Z,2.72
2023-05-12T10:11:22.535Z,2.42
2023-05-12T10:13:49.006Z,2.03
2023-05-12T10:16:15.741Z,2.72
2023-05-12T10:18:43.500Z,2.70
2023-05-12T10:21:11.920Z,4.80
2023-05-12T10:23:39.606Z,4.55
2023-05-12T10:26:06.383Z,3.28
2023-05-12T10:28:32.690Z,8.95
2023-05-12T10:30:59.360Z,4.32
2023-05-12T10:33:26.329Z,4.57
2023-05-12T10:35:53.052Z,6.50
2023-05-12T10:38:22.329Z,4.78
2023-05-12T10:41:03.270Z,4.20
2023-05-12T10:43:37.388Z,3.58
2023-05-12T10:46:22.479Z,9.82
2023-05-12T10:48:53.788Z,3.75
2023-05-12T10:51:23.953Z,4.80
2023-05-12T10:53:54.774Z,4.15
2023-05-12T10:56:22.814Z,3.95
2023-05-12T10:59:09.211Z,4.63
2023-05-12T11:01:36.578Z,5.72
2023-05-12T11:04:14.365Z,7.15
2023-05-12T11:06:41.762Z,4.75
2023-05-12T11:09:09.386Z,4.22
2023-05-12T11:11:36.396Z,5.03
2023-05-12T11:14:02.947Z,5.45
2023-05-12T11:16:29.293Z,10.77
2023-05-12T11:19:05.290Z,4.68
2023-05-12T11:21:32.336Z,7.47
2023-05-12T11:23:59.512Z,6.18
2023-05-12T11:26:26.386Z,10.60
2023-05-12T11:28:52.929Z,4.70
2023-05-12T11:31:20.312Z,5.57
2023-05-12T11:33:47.219Z,5.28
2023-05-12T11:36:14.180Z,15.43
2023-05-12T11:38:48.030Z,3.72
2023-05-12T11:41:14.444Z,4.03
2023-05-12T11:43:40.757Z,4.47
2023-05-12T11:46:08.397Z,4.38
2023-05-12T11:48:35.068Z,4.38
2023-05-12T11:51:02.395Z,4.32
2023-05-12T11:53:28.697Z,7.47
2023-05-12T11:55:55.873Z,3.92
2023-05-12T11:58:26.819Z,5.68
2023-05-12T12:00:53.903Z,3.78
2023-05-12T12:03:20.471Z,16.00
2023-05-12T12:05:57.536Z,4.90
2023-05-12T12:08:24.464Z,2.92
2023-05-12T12:10:50.847Z,3.13
2023-05-12T12:13:23.883Z,8.77
2023-05-12T12:15:50.796Z,2.97
2023-05-12T12:18:17.192Z,3.15
2023-05-12T12:20:43.747Z,3.95
2023-05-12T12:23:10.053Z,4.28
2023-05-12T12:25:36.392Z,2.30
2023-05-12T12:28:02.809Z,4.00
2023-05-12T12:30:29.144Z,3.17
2023-05-12T12:32:55.611Z,3.25
2023-05-12T12:35:22.383Z,2.35
2023-05-12T12:37:51.850Z,5.18
2023-05-12T12:40:18.874Z,3.67
2023-05-12T12:42:45.312Z,4.50
2023-05-12T12:45:11.843Z,6.95
2023-05-12T12:47:38.976Z,4.43
2023-05-12T12:50:09.954Z,5.55
2023-05-12T12:52:37.450Z,5.15
2023-05-12T12:55:04.465Z,4.13
2023-05-12T12:57:30.789Z,5.75
2023-05-12T12:59:57.117Z,6.32
2023-05-12T13:02:23.561Z,5.00
2023-05-12T13:04:50.894Z,8.05
2023-05-12T13:07:17.241Z,7.65
2023-05-12T13:09:43.743Z,7.35
2023-05-12T13:12:10.153Z,7.60
2023-05-12T13:14:36.453Z,7.25
2023-05-12T13:17:02.908Z,5.85
2023-05-12T13:19:29.250Z,8.13
2023-05-12T13:21:55.600Z,8.07
2023-05-12T13:24:21.893Z,6.53
2023-05-12T13:26:48.199Z,6.70
2023-05-12T13:29:14.502Z,5.10
2023-05-12T13:31:41.279Z,5.18
2023-05-12T13:34:07.576Z,6.15
2023-05-12T13:36:34.673Z,7.38
2023-05-12T13:39:01.843Z,6.75
2023-05-12T13:41:28.172Z,6.43
2023-05-12T13:43:54.461Z,6.28
2023-05-12T13:46:21.112Z,5.50
2023-05-12T13:48:47.969Z,6.88
2023-05-12T13:51:14.754Z,4.10
2023-05-12T13:53:45.688Z,6.78
2023-05-12T13:56:12.038Z,5.70
2023-05-12T13:58:38.365Z,3.83
2023-05-12T14:01:06.632Z,4.82
2023-05-12T14:03:34.735Z,3.95
2023-05-12T14:06:01.272Z,3.97
2023-05-12T14:08:27.557Z,4.28
2023-05-12T14:10:53.852Z,3.90
2023-05-12T14:13:20.173Z,3.60
2023-05-12T14:15:49.263Z,5.95
2023-05-12T14:18:16.019Z,4.00
2023-05-12T14:20:42.504Z,5.43
2023-05-12T14:23:08.798Z,4.53
2023-05-12T14:25:35.330Z,3.92
2023-05-12T14:28:01.919Z,4.90
2023-05-12T14:30:28.423Z,3.50
2023-05-12T14:32:55.296Z,5.00
2023-05-12T14:35:22.414Z,4.07
2023-05-12T14:37:49.090Z,4.13
2023-05-12T14:40:15.449Z,6.70
2023-05-12T14:42:42.333Z,5.65
2023-05-12T14:45:09.291Z,6.00
2023-05-12T14:47:35.625Z,4.45
2023-05-12T14:50:02.184Z,6.65
2023-05-12T14:52:28.561Z,4.38
2023-05-12T14:54:54.856Z,5.93
2023-05-12T14:57:21.647Z,4.63
2023-05-12T14:59:48.668Z,3.80
2023-05-12T15:02:15.034Z,5.18
2023-05-12T15:04:41.337Z,5.40
2023-05-12T15:07:07.629Z,4.95
2023-05-12T15:09:33.927Z,5.13
2023-05-12T15:12:00.830Z,5.82
2023-05-12T15:14:27.162Z,5.93
2023-05-12T15:16:53.749Z,5.50
2023-05-12T15:19:21.391Z,4.53
2023-05-12T15:21:47.796Z,4.65
2023-05-12T15:24:14.106Z,6.00
2023-05-12T15:26:40.649Z,4.03
2023-05-12T15:29:07.299Z,5.60
2023-05-12T15:31:33.706Z,3.50
2023-05-12T15:34:00.583Z,3.65
2023-05-12T15:36:26.911Z,2.13
2023-05-12T15:38:53.218Z,2.20
2023-05-12T15:41:19.597Z,6.07
2023-05-12T15:43:45.927Z,5.75
2023-05-12T15:46:12.289Z,5.38
2023-05-12T15:48:39.433Z,5.20
2023-05-12T15:51:06.477Z,7.00
2023-05-12T15:53:32.838Z,6.38
2023-05-12T15:56:00.079Z,5.88
2023-05-12T15:58:26.738Z,6.10
2023-05-12T16:00:56.172Z,5.47
2023-05-12T16:03:23.587Z,6.45
2023-05-12T16:05:50.070Z,6.90
2023-05-12T16:08:16.601Z,5.50
2023-05-12T16:10:42.917Z,5.47
2023-05-12T16:13:09.247Z,6.03
2023-05-12T16:15:35.820Z,6.63
2023-05-12T16:18:02.477Z,6.28
2023-05-12T16:20:29.760Z,5.93
2023-05-12T16:22:56.091Z,6.25
2023-05-12T16:25:22.715Z,4.90
2023-05-12T16:27:49.192Z,5.05
2023-05-12T16:30:17.263Z,8.15
2023-05-12T16:32:46.953Z,7.10
2023-05-12T16:35:13.309Z,6.90
2023-05-12T16:37:39.622Z,8.23
2023-05-12T16:40:06.363Z,9.98
2023-05-12T16:42:33.086Z,13.80
2023-05-12T16:44:59.424Z,9.02
2023-05-12T16:47:25.808Z,9.25
2023-05-12T16:49:53.332Z,8.20
2023-05-12T16:52:19.876Z,9.07
2023-05-12T16:54:46.310Z,9.32
2023-05-12T16:57:12.613Z,12.60
2023-05-12T16:59:39.645Z,9.68
2023-05-12T17:02:06.231Z,9.40
2023-05-12T17:04:32.798Z,9.27
2023-05-12T17:06:59.219Z,11.73
2023-05-12T17:09:25.537Z,10.77
2023-05-12T17:11:52.250Z,11.38
2023-05-12T17:14:19.322Z,13.13
2023-05-12T17:16:45.899Z,13.90
2023-05-12T17:19:14.091Z,14.65
2023-05-12T17:21:40.844Z,15.32
2023-05-12T17:24:08.105Z,15.00
2023-05-12T17:26:34.628Z,17.58
2023-05-12T17:29:01.361Z,19.52
2023-05-12T17:31:27.942Z,18.23
2023-05-12T17:33:54.676Z,21.42
2023-05-12T17:36:21.014Z,21.35
2023-05-12T17:38:47.411Z,25.20
2023-05-12T17:41:14.270Z,23.50
2023-05-12T17:43:41.393Z,22.60
2023-05-12T17:46:09.025Z,28.23
2023-05-12T17:48:35.431Z,25.38
2023-05-12T17:51:03.119Z,25.13
2023-05-12T17:53:30.404Z,28.33
2023-05-12T17:55:57.222Z,25.58
2023-05-12T17:58:23.678Z,29.55
2023-05-12T18:00:50.137Z,28.83
2023-05-12T18:03:17.627Z,20.23
2023-05-12T18:05:44.333Z,28.00
2023-05-12T18:08:10.743Z,33.55
2023-05-12T18:10:38.565Z,26.25
2023-05-12T18:13:05.177Z,36.25
2023-05-12T18:15:31.805Z,32.22
2023-05-12T18:17:58.297Z,25.83
2023-05-12T18:20:25.566Z,25.27
2023-05-12T18:22:52.001Z,28.13
2023-05-12T18:25:18.471Z,28.90
2023-05-12T18:27:44.892Z,36.70
2023-05-12T18:30:11.834Z,34.47
2023-05-12T18:32:38.957Z,32.58
2023-05-12T18:35:05.988Z,36.92
2023-05-12T18:37:32.608Z,34.13
2023-05-12T18:39:58.879Z,34.65
2023-05-12T18:42:29.002Z,37.55
2023-05-12T18:44:55.334Z,33.67
2023-05-12T18:47:21.642Z,34.50
2023-05-12T18:49:48.018Z,35.55
2023-05-12T18:52:14.321Z,38.10
2023-05-12T18:54:40.783Z,36.90
2023-05-12T18:57:07.113Z,32.70
2023-05-12T18:59:33.506Z,41.78
2023-05-12T19:01:59.868Z,38.67
2023-05-12T19:04:26.277Z,37.97
2023-05-12T19:06:52.613Z,38.08
2023-05-12T19:09:18.922Z,33.60
2023-05-12T19:11:45.217Z,41.22
2023-05-12T19:14:11.964Z,41.85
2023-05-12T19:16:39.763Z,44.35
2023-05-12T19:19:06.274Z,37.97
2023-05-12T19:21:33.518Z,35.10
2023-05-12T19:24:01.103Z,32.17
2023-05-12T19:26:27.573Z,38.95
2023-05-12T19:28:53.924Z,30.13
2023-05-12T19:31:20.350Z,32.53
2023-05-12T19:33:46.817Z,35.97
2023-05-12T19:36:13.205Z,32.17
2023-05-12T19:38:43.423Z,35.72
2023-05-12T19:41:10.300Z,32.00
2023-05-12T19:43:36.713Z,35.35
2023-05-12T19:46:03.133Z,33.85
2023-05-12T19:48:30.108Z,35.53
2023-05-12T19:50:56.631Z,37.63
2023-05-12T19:53:23.086Z,37.30
2023-05-12T19:55:49.541Z,41.90
2023-05-12T19:58:15.967Z,30.38
2023-05-12T20:00:42.305Z,42.60
2023-05-12T20:03:08.877Z,103.68
2023-05-12T20:05:36.668Z,41.55
2023-05-12T20:08:03.212Z,31.38
2023-05-12T20:10:29.520Z,37.55
2023-05-12T20:12:56.121Z,37.97
2023-05-12T20:15:22.524Z,13.65
2023-05-12T20:17:49.076Z,40.75
2023-05-12T20:20:15.476Z,37.05
2023-05-12T20:22:41.795Z,38.30
2023-05-12T20:25:08.399Z,39.53
2023-05-12T20:27:34.755Z,37.97
2023-05-12T20:30:01.127Z,42.50
2023-05-12T20:32:27.517Z,35.47
2023-05-12T20:34:53.903Z,43.40
2023-05-12T20:37:20.271Z,44.08
2023-05-12T20:39:46.680Z,8.75
2023-05-12T20:42:13.067Z,27.67
2023-05-12T20:44:39.395Z,49.80
2023-05-12T20:47:05.768Z,43.85
2023-05-12T20:49:32.103Z,47.63
2023-05-12T20:51:58.425Z,47.90
2023-05-12T20:54:24.812Z,36.72
2023-05-12T20:56:51.187Z,72.93
2023-05-12T20:59:17.475Z,44.08
2023-05-12T21:01:43.821Z,39.67
2023-05-12T21:04:10.228Z,44.55
2023-05-12T21:06:36.999Z,50.60
2023-05-12T21:09:04.928Z,54.00
2023-05-12T21:11:31.436Z,50.10
2023-05-12T21:13:57.833Z,48.40
2023-05-12T21:16:24.167Z,46.67
2023-05-12T21:18:50.834Z,50.92
2023-05-12T21:21:17.153Z,15.23
2023-05-12T21:23:43.456Z,18.38
2023-05-12T21:26:10.439Z,16.27
2023-05-12T21:28:37.191Z,14.50
2023-05-12T21:31:03.491Z,16.17
2023-05-12T21:33:30.282Z,16.70
2023-05-12T21:35:56.596Z,15.43
2023-05-12T21:38:22.882Z,14.02
2023-05-12T21:40:51.817Z,17.08
2023-05-12T21:43:18.340Z,17.27
2023-05-12T21:45:44.870Z,49.35
2023-05-12T21:48:11.525Z,26.30
2023-05-12T21:50:37.942Z,31.05
2023-05-12T21:53:04.281Z,24.50
2023-05-12T21:55:30.585Z,22.85
2023-05-12T21:57:57.362Z,24.77
2023-05-12T22:00:23.885Z,27.92
2023-05-12T22:02:50.617Z,114.68
2023-05-12T22:05:17.122Z,36.25
2023-05-12T22:07:43.928Z,14.45
2023-05-12T22:10:10.241Z,15.13
2023-05-12T22:12:37.281Z,13.80
2023-05-12T22:15:03.951Z,13.55
2023-05-12T22:17:30.307Z,86.07
2023-05-12T22:19:56.652Z,24.02
2023-05-12T22:22:22.987Z,17.45
2023-05-12T22:24:49.292Z,14.93
2023-05-12T22:27:21.023Z,14.88
2023-05-12T22:29:47.440Z,16.73
2023-05-12T22:32:14.113Z,15.20
2023-05-12T22:34:40.533Z,10.00
2023-05-12T22:37:06.914Z,11.60
2023-05-12T22:39:33.238Z,12.15
2023-05-12T22:41:59.733Z,9.90
2023-05-12T22:44:26.039Z,9.52
2023-05-12T22:46:52.359Z,10.15
2023-05-12T22:49:18.704Z,6.93
2023-05-12T22:51:45.013Z,35.65
2023-05-12T22:54:11.501Z,19.70
2023-05-12T22:56:37.795Z,4.65
2023-05-12T22:59:04.081Z,19.48
2023-05-12T23:01:30.405Z,15.82
2023-05-12T23:03:56.777Z,15.48
2023-05-12T23:06:23.126Z,19.05
2023-05-12T23:08:49.411Z,20.30
2023-05-12T23:11:15.817Z,21.35
2023-05-12T23:13:42.369Z,16.55
2023-05-12T23:16:08.696Z,15.93
2023-05-12T23:18:35.223Z,13.82
2023-05-12T23:21:01.590Z,14.25
2023-05-12T23:23:27.892Z,23.13
2023-05-12T23:25:54.204Z,17.40
2023-05-12T23:28:20.497Z,17.60
2023-05-12T23:30:46.812Z,20.02
2023-05-12T23:33:13.300Z,17.02
2023-05-12T23:35:39.705Z,20.63
2023-05-12T23:38:06.022Z,20.13
2023-05-12T23:40:33.467Z,23.25
2023-05-12T23:42:59.856Z,21.23
2023-05-12T23:45:26.195Z,21.65
2023-05-12T23:47:52.855Z,25.00
2023-05-12T23:50:19.502Z,16.45
2023-05-12T23:52:45.944Z,13.20
2023-05-12T23:55:12.274Z,7.28
2023-05-12T23:57:38.589Z,8.20
